Hovedside
METAR-TAF:

METAR-TAF

Lufthavner :

Örnsköldsvik lufthavn

Örnsköldsvik, Sverige

breddegrad: 63-24N, lengdegrad: 018-58E, høyde over havet: 103 m

Gjeldene værobservasjon

Denne rapporten ble laget for 20 minutter siden, klokken 06:50 UTC
Vind 15 kt fra Nord-nordvest med vindkast opp mot 26 kt
Temperatur 2°C
Luftfuktighet 40%
Trykk 997 hPa
Sikt 10 km eller mer

METAR: ESNO 010650Z AUTO 33015G26KT 9999 NCD 02/M10 Q0997

Tid: 09:10 (07:10 UTC)


TAF: fraværende

Værobservasjoner og værvarsel for over 4000 flyplasser (METAR- og TAF-rapporter).

Tilgjengelige stasjoner er representert av de røde og gule prikkene på kartet.

Hold musepekeren over prikken for å se navnet på stasjonen.

Klikk så for å se værobservasjoner og -varsler.

For å forandre kartet kan du klikke på den grønne knappen med svart kryss for å zoome inn, på den grønne knappen med strek for å zoome ut, eller på de grønne pilene for å se tilstøtende kart.


METAR-TAF: